createdAt,value
2023-03-21T00:00:22.541Z,0.91
2023-03-21T00:04:22.566Z,1.04
2023-03-21T00:08:22.500Z,0.92
2023-03-21T00:12:22.441Z,1.13
2023-03-21T00:16:28.344Z,1.15
2023-03-21T00:20:23.355Z,1.17
2023-03-21T00:24:22.328Z,0.99
2023-03-21T00:28:22.268Z,1.21
2023-03-21T00:32:22.264Z,1.13
2023-03-21T00:36:22.250Z,1.17
2023-03-21T00:40:29.368Z,1.00
2023-03-21T00:44:23.215Z,1.22
2023-03-21T00:48:22.225Z,1.01
2023-03-21T00:52:30.782Z,1.14
2023-03-21T00:56:23.088Z,1.33
2023-03-21T01:00:22.068Z,1.04
2023-03-21T01:04:22.078Z,0.90
2023-03-21T01:08:28.191Z,1.37
2023-03-21T01:12:22.982Z,1.22
2023-03-21T01:16:21.965Z,1.14
2023-03-21T01:20:21.908Z,1.16
2023-03-21T01:24:22.238Z,1.24
2023-03-21T01:28:21.930Z,1.38
2023-03-21T01:32:21.938Z,1.11
2023-03-21T01:36:23.498Z,1.14
2023-03-21T01:40:21.800Z,0.89
2023-03-21T01:44:21.812Z,1.22
2023-03-21T01:48:21.839Z,1.05
2023-03-21T01:52:35.491Z,1.17
2023-03-21T01:56:22.882Z,1.28
2023-03-21T02:00:21.836Z,1.21
2023-03-21T02:04:21.847Z,1.11
2023-03-21T02:08:25.873Z,0.99
2023-03-21T02:12:22.808Z,1.54
2023-03-21T02:16:21.830Z,1.56
2023-03-21T02:20:21.765Z,1.22
2023-03-21T02:24:21.821Z,1.11
2023-03-21T02:28:21.864Z,1.09
2023-03-21T02:32:36.308Z,1.39
2023-03-21T02:36:22.917Z,1.41
2023-03-21T02:40:21.861Z,1.02
2023-03-21T02:44:21.834Z,1.10
2023-03-21T02:48:29.271Z,1.44
2023-03-21T02:52:37.378Z,1.38
2023-03-21T02:56:22.821Z,1.37
2023-03-21T03:00:21.745Z,1.44
2023-03-21T03:04:21.764Z,1.25
2023-03-21T03:08:26.634Z,1.63
2023-03-21T03:12:22.645Z,1.21
2023-03-21T03:16:21.617Z,1.38
2023-03-21T03:20:21.574Z,1.16
2023-03-21T03:24:21.559Z,1.17
2023-03-21T03:28:21.542Z,1.26
2023-03-21T03:32:21.612Z,1.28
2023-03-21T03:36:31.547Z,1.48
2023-03-21T03:40:22.667Z,1.20
2023-03-21T03:44:21.609Z,1.57
2023-03-21T03:48:21.624Z,1.12
2023-03-21T03:52:21.537Z,1.34
2023-03-21T03:56:21.490Z,1.07
2023-03-21T04:00:21.508Z,1.55
2023-03-21T04:04:21.641Z,1.71
2023-03-21T04:08:21.651Z,1.37
2023-03-21T04:12:21.774Z,1.04
2023-03-21T04:16:21.853Z,1.48
2023-03-21T04:20:35.615Z,1.45
2023-03-21T04:24:22.902Z,1.25
2023-03-21T04:28:21.854Z,1.21
2023-03-21T04:32:21.818Z,1.39
2023-03-21T04:36:21.764Z,1.37
2023-03-21T04:40:21.806Z,1.13
2023-03-21T04:44:21.927Z,1.50
2023-03-21T04:48:22.018Z,1.75
2023-03-21T04:52:23.757Z,1.51
2023-03-21T04:56:22.069Z,1.52
2023-03-21T05:00:22.037Z,1.61
2023-03-21T05:04:22.066Z,1.35
2023-03-21T05:08:21.958Z,1.42
2023-03-21T05:12:21.911Z,1.20
2023-03-21T05:16:21.922Z,1.54
2023-03-21T05:20:22.160Z,1.55
2023-03-21T05:24:21.783Z,1.33
2023-03-21T05:28:21.741Z,1.49
2023-03-21T05:32:21.727Z,1.54
2023-03-21T05:36:21.700Z,1.92
2023-03-21T05:40:21.655Z,1.23
2023-03-21T05:44:21.613Z,1.21
2023-03-21T05:48:21.620Z,1.28
2023-03-21T05:52:21.559Z,1.51
2023-03-21T05:56:21.496Z,1.60
2023-03-21T06:00:21.596Z,1.53
2023-03-21T06:04:21.706Z,1.54
2023-03-21T06:08:21.860Z,1.31
2023-03-21T06:12:21.982Z,1.35
2023-03-21T06:16:22.159Z,1.63
2023-03-21T06:20:22.262Z,1.38
2023-03-21T06:24:22.353Z,1.79
2023-03-21T06:28:22.466Z,1.58
2023-03-21T06:32:22.637Z,1.54
2023-03-21T06:36:22.742Z,1.52
2023-03-21T06:40:23.200Z,1.66
2023-03-21T06:44:22.957Z,1.66
2023-03-21T06:48:23.205Z,1.77
2023-03-21T06:52:23.013Z,1.48
2023-03-21T06:56:23.193Z,1.82
2023-03-21T07:00:23.173Z,1.85
2023-03-21T07:04:22.891Z,2.05
2023-03-21T07:08:22.875Z,1.83
2023-03-21T07:12:22.845Z,2.08
2023-03-21T07:16:23.234Z,1.96
2023-03-21T07:20:22.777Z,2.04
2023-03-21T07:24:22.728Z,1.60
2023-03-21T07:28:22.701Z,2.13
2023-03-21T07:32:22.776Z,1.97
2023-03-21T07:36:22.734Z,2.03
2023-03-21T07:40:22.677Z,2.00
2023-03-21T07:44:22.653Z,1.83
2023-03-21T07:48:22.785Z,2.16
2023-03-21T07:52:22.743Z,2.13
2023-03-21T07:56:22.734Z,2.43
2023-03-21T08:00:22.531Z,2.04
2023-03-21T08:04:22.486Z,2.20
2023-03-21T08:08:22.427Z,2.67
2023-03-21T08:12:22.424Z,2.44
2023-03-21T08:16:22.420Z,2.55
2023-03-21T08:20:22.324Z,1.89
2023-03-21T08:24:22.392Z,2.68
2023-03-21T08:28:22.483Z,2.29
2023-03-21T08:32:22.511Z,2.27
2023-03-21T08:36:22.539Z,1.73
2023-03-21T08:40:22.736Z,2.18
2023-03-21T08:44:22.525Z,1.91
2023-03-21T08:48:22.769Z,2.53
2023-03-21T08:52:22.741Z,3.95
2023-03-21T08:56:22.674Z,3.55
2023-03-21T09:00:23.757Z,3.17
2023-03-21T09:04:23.267Z,3.25
2023-03-21T09:08:22.869Z,3.82
2023-03-21T09:12:22.853Z,3.10
2023-03-21T09:16:22.845Z,3.01
2023-03-21T09:20:22.789Z,3.03
2023-03-21T09:24:22.753Z,2.82
2023-03-21T09:28:22.717Z,3.16
2023-03-21T09:32:22.694Z,3.19
2023-03-21T09:36:22.759Z,3.61
2023-03-21T09:40:22.761Z,3.79
2023-03-21T09:44:22.561Z,3.36
2023-03-21T09:48:22.776Z,3.63
2023-03-21T09:52:22.739Z,3.53
2023-03-21T09:56:22.784Z,3.47
2023-03-21T10:00:22.520Z,3.43
2023-03-21T10:04:22.515Z,3.09
2023-03-21T10:08:22.796Z,2.59
2023-03-21T10:12:22.323Z,3.10
2023-03-21T10:16:22.589Z,2.69
2023-03-21T10:20:22.622Z,3.36
2023-03-21T10:24:22.771Z,3.17
2023-03-21T10:28:22.424Z,3.47
2023-03-21T10:32:22.879Z,3.12
2023-03-21T10:36:22.377Z,2.59
2023-03-21T10:40:22.785Z,2.40
2023-03-21T10:44:22.306Z,2.47
2023-03-21T10:48:22.403Z,2.87
2023-03-21T10:52:22.192Z,2.59
2023-03-21T10:56:22.178Z,2.64
2023-03-21T11:00:22.277Z,2.75
2023-03-21T11:04:22.246Z,2.49
2023-03-21T11:08:22.405Z,2.51
2023-03-21T11:12:22.534Z,2.81
2023-03-21T11:16:22.709Z,2.60
2023-03-21T11:20:22.826Z,3.22
2023-03-21T11:24:23.012Z,2.73
2023-03-21T11:28:23.136Z,2.76
2023-03-21T11:32:23.219Z,2.80
2023-03-21T11:36:23.862Z,2.60
2023-03-21T11:40:23.873Z,2.98
2023-03-21T11:44:23.517Z,2.64
2023-03-21T11:48:23.628Z,2.96
2023-03-21T11:52:23.587Z,2.84
2023-03-21T11:56:23.826Z,2.80
2023-03-21T12:00:23.722Z,2.64
2023-03-21T12:04:23.635Z,2.97
2023-03-21T12:08:23.562Z,2.78
2023-03-21T12:12:30.010Z,2.74
2023-03-21T12:16:24.595Z,2.89
2023-03-21T12:20:23.467Z,2.48
2023-03-21T12:24:23.418Z,2.22
2023-03-21T12:28:32.389Z,2.52
2023-03-21T12:32:24.850Z,2.19
2023-03-21T12:36:23.873Z,2.81
2023-03-21T12:40:23.434Z,2.97
2023-03-21T12:44:23.593Z,2.47
2023-03-21T12:48:23.934Z,2.35
2023-03-21T12:52:23.783Z,2.75
2023-03-21T12:56:23.929Z,2.35
2023-03-21T13:00:24.251Z,2.18
2023-03-21T13:04:24.891Z,2.39
2023-03-21T13:08:24.105Z,3.10
2023-03-21T13:12:24.056Z,3.31
2023-03-21T13:16:24.147Z,3.03
2023-03-21T13:20:23.993Z,2.84
2023-03-21T13:24:24.333Z,2.95
2023-03-21T13:28:23.919Z,2.71
2023-03-21T13:32:23.976Z,3.05
2023-03-21T13:36:23.849Z,2.09
2023-03-21T13:40:23.821Z,2.16
2023-03-21T13:44:23.789Z,2.85
2023-03-21T13:48:23.891Z,2.31
2023-03-21T13:52:23.695Z,2.00
2023-03-21T13:56:23.690Z,3.22
2023-03-21T14:00:23.709Z,2.94
2023-03-21T14:04:27.186Z,2.77
2023-03-21T14:08:36.443Z,2.72
2023-03-21T14:12:24.550Z,2.41
2023-03-21T14:16:23.509Z,2.57
2023-03-21T14:20:23.969Z,3.17
2023-03-21T14:24:23.409Z,2.69
2023-03-21T14:28:23.892Z,2.65
2023-03-21T14:32:23.322Z,2.42
2023-03-21T14:36:23.380Z,2.53
2023-03-21T14:40:23.287Z,2.29
2023-03-21T14:44:23.257Z,5.31
2023-03-21T14:48:23.286Z,2.72
2023-03-21T14:52:23.259Z,2.52
2023-03-21T14:56:23.249Z,2.57
2023-03-21T15:00:23.384Z,2.26
2023-03-21T15:04:23.526Z,2.73
2023-03-21T15:08:23.988Z,2.56
2023-03-21T15:12:24.625Z,2.31
2023-03-21T15:16:23.978Z,2.61
2023-03-21T15:20:24.116Z,2.53
2023-03-21T15:24:24.314Z,2.50
2023-03-21T15:28:24.421Z,2.39
2023-03-21T15:32:24.603Z,2.26
2023-03-21T15:36:24.819Z,3.01
2023-03-21T15:40:25.069Z,2.28
2023-03-21T15:44:25.225Z,2.37
2023-03-21T15:48:25.443Z,2.11
2023-03-21T15:52:25.660Z,1.78
2023-03-21T15:56:25.950Z,2.34
2023-03-21T16:00:25.870Z,2.05
2023-03-21T16:04:25.774Z,2.16
2023-03-21T16:08:25.716Z,2.21
2023-03-21T16:12:25.789Z,2.15
2023-03-21T16:16:25.720Z,2.51
2023-03-21T16:20:25.662Z,2.21
2023-03-21T16:24:25.592Z,2.16
2023-03-21T16:28:25.609Z,2.57
2023-03-21T16:32:25.529Z,2.36
2023-03-21T16:36:25.489Z,3.07
2023-03-21T16:40:25.446Z,2.44
2023-03-21T16:44:25.446Z,2.32
2023-03-21T16:48:25.500Z,2.59
2023-03-21T16:52:26.450Z,2.48
2023-03-21T16:56:25.445Z,2.56
2023-03-21T17:00:25.405Z,2.15
2023-03-21T17:04:25.389Z,2.23
2023-03-21T17:08:25.393Z,2.64
2023-03-21T17:12:25.355Z,3.07
2023-03-21T17:16:26.922Z,2.15
2023-03-21T17:20:25.409Z,2.26
2023-03-21T17:24:25.427Z,2.18
2023-03-21T17:28:25.435Z,2.30
2023-03-21T17:32:25.504Z,2.50
2023-03-21T17:36:25.550Z,2.32
2023-03-21T17:40:25.631Z,2.66
2023-03-21T17:44:25.733Z,2.75
2023-03-21T17:48:25.755Z,2.47
2023-03-21T17:52:25.847Z,1.90
2023-03-21T17:56:25.904Z,2.35
2023-03-21T18:00:26.058Z,2.49
2023-03-21T18:04:26.278Z,2.68
2023-03-21T18:08:26.228Z,2.30
2023-03-21T18:12:26.390Z,2.32
2023-03-21T18:16:26.420Z,2.46
2023-03-21T18:20:44.454Z,2.43
2023-03-21T18:24:27.453Z,2.16
2023-03-21T18:28:26.406Z,2.72
2023-03-21T18:32:26.490Z,2.51
2023-03-21T18:36:28.707Z,2.38
2023-03-21T18:40:26.345Z,2.74
2023-03-21T18:44:26.303Z,2.17
2023-03-21T18:48:26.344Z,2.12
2023-03-21T18:52:26.535Z,2.64
2023-03-21T19:00:27.228Z,2.49
2023-03-21T19:04:30.316Z,2.11
2023-03-21T19:08:26.084Z,2.15
2023-03-21T19:12:26.042Z,2.46
2023-03-21T19:16:30.772Z,2.19
2023-03-21T19:20:26.990Z,2.67
2023-03-21T19:24:28.567Z,2.35
2023-03-21T19:28:25.913Z,2.50
2023-03-21T19:32:25.867Z,2.45
2023-03-21T19:36:26.412Z,2.37
2023-03-21T19:40:25.800Z,2.47
2023-03-21T19:44:25.748Z,2.40
2023-03-21T19:48:27.088Z,2.12
2023-03-21T19:52:25.711Z,2.74
2023-03-21T19:56:27.289Z,2.87
2023-03-21T20:00:25.623Z,2.53
2023-03-21T20:04:25.597Z,2.29
2023-03-21T20:08:25.555Z,2.55
2023-03-21T20:12:25.642Z,2.17
2023-03-21T20:16:33.659Z,2.61
2023-03-21T20:20:26.752Z,2.33
2023-03-21T20:24:25.732Z,2.81
2023-03-21T20:28:28.459Z,2.93
2023-03-21T20:32:25.645Z,2.31
2023-03-21T20:36:43.105Z,2.47
2023-03-21T20:40:26.617Z,2.21
2023-03-21T20:44:48.411Z,2.74
2023-03-21T20:48:26.518Z,2.43
2023-03-21T20:52:57.841Z,2.68
2023-03-21T20:56:26.466Z,2.47
2023-03-21T21:00:25.402Z,2.46
2023-03-21T21:04:44.203Z,2.76
2023-03-21T21:08:26.565Z,3.77
2023-03-21T21:12:26.034Z,2.60
2023-03-21T21:16:25.796Z,2.84
2023-03-21T21:20:25.939Z,2.59
2023-03-21T21:24:26.181Z,2.80
2023-03-21T21:28:26.353Z,2.58
2023-03-21T21:32:26.568Z,2.75
2023-03-21T21:36:26.793Z,2.37
2023-03-21T21:40:27.015Z,2.62
2023-03-21T21:44:27.222Z,2.93
2023-03-21T21:48:27.170Z,2.82
2023-03-21T21:52:27.166Z,2.96
2023-03-21T21:56:27.109Z,2.66
2023-03-21T22:00:27.075Z,2.57
2023-03-21T22:04:27.060Z,2.64
2023-03-21T22:08:26.997Z,2.71
2023-03-21T22:12:26.961Z,2.56
2023-03-21T22:16:26.992Z,2.93
2023-03-21T22:20:26.913Z,2.49
2023-03-21T22:24:26.947Z,2.93
2023-03-21T22:28:26.933Z,2.68
2023-03-21T22:32:26.903Z,3.00
2023-03-21T22:36:26.845Z,3.00
2023-03-21T22:40:26.816Z,3.06
2023-03-21T22:44:26.784Z,2.79
2023-03-21T22:48:26.740Z,2.64
2023-03-21T22:52:26.693Z,2.42
2023-03-21T22:56:26.680Z,2.73
2023-03-21T23:00:26.647Z,2.44
2023-03-21T23:04:26.696Z,2.94
2023-03-21T23:08:26.597Z,2.49
2023-03-21T23:12:26.564Z,2.78
2023-03-21T23:16:26.532Z,3.00
2023-03-21T23:20:26.498Z,2.74
2023-03-21T23:24:26.421Z,2.72
2023-03-21T23:28:26.395Z,2.63
2023-03-21T23:32:26.389Z,3.09
2023-03-21T23:36:26.343Z,2.95
2023-03-21T23:40:26.296Z,2.79
2023-03-21T23:44:26.271Z,2.99
2023-03-21T23:48:26.233Z,3.21
2023-03-21T23:52:26.191Z,2.94
2023-03-21T23:56:26.160Z,2.67
